AEE277 LGHI-LGAV
Flight info
| Callsign | AEE277 |
|---|---|
| Flight time | 0h 29m |
| Altitude | 20000 |
| Route | PANOX G802 SOSIR G8 OGSIL |
| Aircraft | A320/M-SDE3FGHIRWY/LB1 |
Departure
| Time | 2026-05-05 17:17 |
|---|---|
| Airport | Chios Island National Airport (LGHI) |
Arrival
| Time | 2026-05-05 17:46 |
|---|---|
| Airport | Athens Eleftherios Venizelos International Airport (LGAV) |
| Time | Latitude | Longitude | Altitude | Speed | Heading |
|---|---|---|---|---|---|
| 2026-05-05 16:56 | 38.34449 | 26.14221 | 29 ft | 0 kts | 124° |
| 2026-05-05 17:13 | 38.34446 | 26.14222 | 29 ft | 1 kts | 140° |
| 2026-05-05 17:13 | 38.34442 | 26.14217 | 29 ft | 1 kts | 205° |
| 2026-05-05 17:13 | 38.34423 | 26.14191 | 29 ft | 10 kts | 222° |
| 2026-05-05 17:14 | 38.34359 | 26.14093 | 29 ft | 17 kts | 228° |
| 2026-05-05 17:14 | 38.34267 | 26.14041 | 29 ft | 14 kts | 192° |
| 2026-05-05 17:14 | 38.34166 | 26.14018 | 29 ft | 16 kts | 190° |
| 2026-05-05 17:14 | 38.34053 | 26.13994 | 29 ft | 18 kts | 190° |
| 2026-05-05 17:15 | 38.33925 | 26.13967 | 29 ft | 20 kts | 189° |
| 2026-05-05 17:15 | 38.33784 | 26.13937 | 29 ft | 22 kts | 190° |
| 2026-05-05 17:15 | 38.33674 | 26.13907 | 29 ft | 14 kts | 204° |
| 2026-05-05 17:15 | 38.33630 | 26.13908 | 29 ft | 3 kts | 81° |
| 2026-05-05 17:16 | 38.33639 | 26.13910 | 29 ft | 0 kts | 6° |
| 2026-05-05 17:16 | 38.33650 | 26.13909 | 29 ft | 2 kts | 355° |
| 2026-05-05 17:16 | 38.33663 | 26.13912 | 29 ft | 0 kts | 7° |
| 2026-05-05 17:16 | 38.33671 | 26.13913 | 29 ft | 0 kts | 7° |
| 2026-05-05 17:17 | 38.33859 | 26.13952 | 30 ft | 70 kts | 9° |
| 2026-05-05 17:17 | 38.34610 | 26.14117 | 44 ft | 141 kts | 8° |
| 2026-05-05 17:17 | 38.35605 | 26.14333 | 686 ft | 147 kts | 9° |
| 2026-05-05 17:17 | 38.36645 | 26.14565 | 1487 ft | 157 kts | 8° |
| 2026-05-05 17:18 | 38.37684 | 26.15085 | 2158 ft | 170 kts | 39° |
| 2026-05-05 17:18 | 38.38229 | 26.16488 | 2584 ft | 191 kts | 81° |
| 2026-05-05 17:18 | 38.37973 | 26.18192 | 3100 ft | 206 kts | 116° |
| 2026-05-05 17:18 | 38.36906 | 26.19426 | 3609 ft | 217 kts | 158° |
| 2026-05-05 17:19 | 38.35405 | 26.19550 | 4158 ft | 222 kts | 198° |
| 2026-05-05 17:19 | 38.34106 | 26.18469 | 4596 ft | 230 kts | 236° |
| 2026-05-05 17:19 | 38.33535 | 26.16609 | 5109 ft | 234 kts | 266° |
| 2026-05-05 17:19 | 38.33314 | 26.14482 | 5627 ft | 251 kts | 265° |
| 2026-05-05 17:20 | 38.33051 | 26.12206 | 6154 ft | 269 kts | 265° |
| 2026-05-05 17:20 | 38.32763 | 26.09802 | 6830 ft | 277 kts | 265° |
| 2026-05-05 17:20 | 38.32467 | 26.07367 | 7659 ft | 280 kts | 264° |
| 2026-05-05 17:20 | 38.32170 | 26.04910 | 8499 ft | 281 kts | 265° |
| 2026-05-05 17:21 | 38.31874 | 26.02436 | 9336 ft | 284 kts | 265° |
| 2026-05-05 17:21 | 38.31577 | 25.99940 | 10128 ft | 287 kts | 266° |
| 2026-05-05 17:21 | 38.31275 | 25.97370 | 10645 ft | 298 kts | 266° |
| 2026-05-05 17:22 | 38.30660 | 25.92083 | 11991 ft | 307 kts | 266° |
| 2026-05-05 17:22 | 38.30344 | 25.89405 | 12626 ft | 313 kts | 266° |
| 2026-05-05 17:22 | 38.30012 | 25.86611 | 13293 ft | 317 kts | 266° |
| 2026-05-05 17:22 | 38.29684 | 25.83856 | 13914 ft | 322 kts | 266° |
| 2026-05-05 17:23 | 38.29347 | 25.81012 | 14470 ft | 327 kts | 266° |
| 2026-05-05 17:23 | 38.29006 | 25.78136 | 15020 ft | 332 kts | 266° |
| 2026-05-05 17:23 | 38.28659 | 25.75209 | 15585 ft | 336 kts | 266° |
| 2026-05-05 17:23 | 38.28307 | 25.72253 | 16167 ft | 339 kts | 266° |
| 2026-05-05 17:24 | 38.27951 | 25.69269 | 16757 ft | 342 kts | 266° |
| 2026-05-05 17:24 | 38.27589 | 25.66229 | 17068 ft | 355 kts | 266° |
| 2026-05-05 17:24 | 38.27210 | 25.63051 | 17288 ft | 369 kts | 266° |
| 2026-05-05 17:24 | 38.26820 | 25.59797 | 17768 ft | 374 kts | 265° |
| 2026-05-05 17:25 | 38.26423 | 25.56509 | 18360 ft | 377 kts | 265° |
| 2026-05-05 17:25 | 38.26155 | 25.54320 | 18702 ft | 379 kts | 265° |
| 2026-05-05 17:25 | 38.25608 | 25.49865 | 19417 ft | 383 kts | 265° |
| 2026-05-05 17:25 | 38.25197 | 25.46508 | 19885 ft | 385 kts | 265° |
| 2026-05-05 17:26 | 38.24784 | 25.43134 | 20031 ft | 388 kts | 265° |
| 2026-05-05 17:26 | 38.24373 | 25.39772 | 20056 ft | 390 kts | 265° |
| 2026-05-05 17:26 | 38.23956 | 25.36367 | 20060 ft | 390 kts | 265° |
| 2026-05-05 17:26 | 38.23536 | 25.32961 | 20057 ft | 390 kts | 265° |
| 2026-05-05 17:27 | 38.23115 | 25.29556 | 20060 ft | 390 kts | 265° |
| 2026-05-05 17:27 | 38.22694 | 25.26147 | 20058 ft | 390 kts | 265° |
| 2026-05-05 17:27 | 38.22272 | 25.22746 | 20059 ft | 390 kts | 265° |
| 2026-05-05 17:27 | 38.21848 | 25.19340 | 20059 ft | 390 kts | 265° |
| 2026-05-05 17:28 | 38.21425 | 25.15940 | 20060 ft | 390 kts | 265° |
| 2026-05-05 17:28 | 38.21000 | 25.12534 | 20057 ft | 390 kts | 265° |
| 2026-05-05 17:28 | 38.20581 | 25.09176 | 20058 ft | 390 kts | 265° |
| 2026-05-05 17:28 | 38.20154 | 25.05771 | 20061 ft | 390 kts | 265° |
| 2026-05-05 17:29 | 38.19730 | 25.02372 | 20061 ft | 390 kts | 265° |
| 2026-05-05 17:29 | 38.19306 | 24.98969 | 20057 ft | 390 kts | 265° |
| 2026-05-05 17:29 | 38.18872 | 24.95567 | 20061 ft | 390 kts | 263° |
| 2026-05-05 17:29 | 38.17995 | 24.92282 | 20062 ft | 397 kts | 246° |
| 2026-05-05 17:30 | 38.16616 | 24.89222 | 20051 ft | 399 kts | 243° |
| 2026-05-05 17:30 | 38.15202 | 24.86189 | 20051 ft | 399 kts | 243° |
| 2026-05-05 17:30 | 38.13774 | 24.83165 | 20053 ft | 399 kts | 242° |
| 2026-05-05 17:30 | 38.12339 | 24.80145 | 20054 ft | 399 kts | 242° |
| 2026-05-05 17:31 | 38.10910 | 24.77126 | 20057 ft | 399 kts | 242° |
| 2026-05-05 17:31 | 38.09485 | 24.74105 | 20050 ft | 399 kts | 243° |
| 2026-05-05 17:31 | 38.08083 | 24.71124 | 20058 ft | 399 kts | 243° |
| 2026-05-05 17:31 | 38.06659 | 24.68100 | 20059 ft | 399 kts | 243° |
| 2026-05-05 17:32 | 38.05239 | 24.65087 | 20058 ft | 399 kts | 243° |
| 2026-05-05 17:32 | 38.03814 | 24.62066 | 20054 ft | 399 kts | 243° |
| 2026-05-05 17:32 | 38.02388 | 24.59051 | 20058 ft | 399 kts | 243° |
| 2026-05-05 17:32 | 38.00964 | 24.56039 | 20058 ft | 399 kts | 243° |
| 2026-05-05 17:33 | 37.99539 | 24.53023 | 20060 ft | 399 kts | 243° |
| 2026-05-05 17:33 | 37.98117 | 24.50020 | 19924 ft | 394 kts | 242° |
| 2026-05-05 17:33 | 37.96730 | 24.47099 | 19374 ft | 394 kts | 242° |
| 2026-05-05 17:33 | 37.95301 | 24.44090 | 18885 ft | 391 kts | 242° |
| 2026-05-05 17:34 | 37.93900 | 24.41141 | 18402 ft | 388 kts | 242° |
| 2026-05-05 17:34 | 37.92528 | 24.38259 | 17796 ft | 387 kts | 242° |
| 2026-05-05 17:34 | 37.91145 | 24.35365 | 17298 ft | 382 kts | 242° |
| 2026-05-05 17:34 | 37.89775 | 24.32500 | 16771 ft | 379 kts | 242° |
| 2026-05-05 17:35 | 37.88420 | 24.29660 | 16275 ft | 375 kts | 242° |
| 2026-05-05 17:35 | 37.87083 | 24.26851 | 15776 ft | 371 kts | 242° |
| 2026-05-05 17:35 | 37.85763 | 24.24078 | 15281 ft | 361 kts | 242° |
| 2026-05-05 17:35 | 37.84492 | 24.21416 | 14812 ft | 346 kts | 242° |
| 2026-05-05 17:36 | 37.83266 | 24.18861 | 14367 ft | 334 kts | 242° |
| 2026-05-05 17:36 | 37.82063 | 24.16352 | 13909 ft | 334 kts | 242° |
| 2026-05-05 17:36 | 37.80858 | 24.13838 | 13423 ft | 334 kts | 242° |
| 2026-05-05 17:36 | 37.79655 | 24.11333 | 12971 ft | 333 kts | 242° |
| 2026-05-05 17:37 | 37.78454 | 24.08836 | 12520 ft | 331 kts | 242° |
| 2026-05-05 17:37 | 37.77664 | 24.07193 | 12225 ft | 331 kts | 242° |
| 2026-05-05 17:37 | 37.76089 | 24.03911 | 11630 ft | 325 kts | 242° |
| 2026-05-05 17:37 | 37.74929 | 24.01498 | 11211 ft | 320 kts | 242° |
| 2026-05-05 17:38 | 37.73773 | 23.99095 | 10778 ft | 320 kts | 242° |
| 2026-05-05 17:38 | 37.72616 | 23.96695 | 10339 ft | 320 kts | 242° |
| 2026-05-05 17:38 | 37.71474 | 23.94325 | 10172 ft | 309 kts | 242° |
| 2026-05-05 17:38 | 37.70378 | 23.92060 | 9904 ft | 294 kts | 242° |
| 2026-05-05 17:39 | 37.69308 | 23.89845 | 9530 ft | 297 kts | 242° |
| 2026-05-05 17:39 | 37.68239 | 23.87630 | 8991 ft | 296 kts | 242° |
| 2026-05-05 17:39 | 37.67164 | 23.85399 | 8559 ft | 296 kts | 242° |
| 2026-05-05 17:39 | 37.66109 | 23.83199 | 8162 ft | 288 kts | 245° |
| 2026-05-05 17:40 | 37.65520 | 23.80877 | 7602 ft | 273 kts | 271° |
| 2026-05-05 17:40 | 37.65846 | 23.78584 | 7123 ft | 264 kts | 298° |
| 2026-05-05 17:40 | 37.66884 | 23.76768 | 6799 ft | 257 kts | 323° |
| 2026-05-05 17:40 | 37.68468 | 23.75816 | 6460 ft | 254 kts | 349° |
| 2026-05-05 17:41 | 37.70217 | 23.75546 | 5993 ft | 252 kts | 354° |
| 2026-05-05 17:41 | 37.71930 | 23.75388 | 5705 ft | 238 kts | 355° |
| 2026-05-05 17:41 | 37.73519 | 23.75284 | 5584 ft | 222 kts | 2° |
| 2026-05-05 17:41 | 37.74984 | 23.75739 | 5464 ft | 215 kts | 24° |
| 2026-05-05 17:42 | 37.76211 | 23.76781 | 5173 ft | 215 kts | 34° |
| 2026-05-05 17:42 | 37.77422 | 23.77930 | 4655 ft | 218 kts | 34° |
| 2026-05-05 17:42 | 37.78636 | 23.79079 | 4155 ft | 218 kts | 34° |
| 2026-05-05 17:42 | 37.79856 | 23.80232 | 3627 ft | 220 kts | 35° |
| 2026-05-05 17:43 | 37.81086 | 23.81396 | 3112 ft | 220 kts | 35° |
| 2026-05-05 17:43 | 37.82293 | 23.82539 | 2762 ft | 212 kts | 36° |
| 2026-05-05 17:43 | 37.83406 | 23.83593 | 2495 ft | 193 kts | 36° |
| 2026-05-05 17:43 | 37.84415 | 23.84550 | 2234 ft | 169 kts | 35° |
| 2026-05-05 17:44 | 37.85343 | 23.85428 | 2015 ft | 163 kts | 36° |
| 2026-05-05 17:44 | 37.86216 | 23.86255 | 1809 ft | 153 kts | 36° |
| 2026-05-05 17:44 | 37.87067 | 23.87062 | 1603 ft | 153 kts | 36° |
| 2026-05-05 17:44 | 37.87917 | 23.87865 | 1394 ft | 152 kts | 36° |
| 2026-05-05 17:45 | 37.88761 | 23.88671 | 1187 ft | 152 kts | 37° |
| 2026-05-05 17:45 | 37.89607 | 23.89475 | 990 ft | 152 kts | 37° |
| 2026-05-05 17:45 | 37.90449 | 23.90276 | 784 ft | 152 kts | 36° |
| 2026-05-05 17:45 | 37.91290 | 23.91071 | 568 ft | 151 kts | 36° |
| 2026-05-05 17:46 | 37.92128 | 23.91875 | 377 ft | 151 kts | 36° |
| 2026-05-05 17:46 | 37.92939 | 23.92640 | 296 ft | 128 kts | 37° |
| 2026-05-05 17:46 | 37.93405 | 23.93081 | 291 ft | 40 kts | 38° |
| 2026-05-05 17:46 | 37.93574 | 23.93294 | 290 ft | 34 kts | 62° |
| 2026-05-05 17:47 | 37.93641 | 23.93496 | 300 ft | 21 kts | 68° |
| 2026-05-05 17:47 | 37.93716 | 23.93652 | 299 ft | 21 kts | 48° |
| 2026-05-05 17:47 | 37.93835 | 23.93769 | 301 ft | 23 kts | 38° |
| 2026-05-05 17:47 | 37.93963 | 23.93893 | 300 ft | 24 kts | 38° |
| 2026-05-05 17:48 | 37.94104 | 23.94026 | 302 ft | 26 kts | 36° |
| 2026-05-05 17:48 | 37.94258 | 23.94165 | 303 ft | 28 kts | 36° |
| 2026-05-05 17:48 | 37.94375 | 23.94275 | 302 ft | 20 kts | 40° |
| 2026-05-05 17:48 | 37.94487 | 23.94388 | 303 ft | 22 kts | 36° |
| 2026-05-05 17:49 | 37.94613 | 23.94508 | 302 ft | 24 kts | 36° |
| 2026-05-05 17:49 | 37.94671 | 23.94575 | 302 ft | 16 kts | 58° |
| 2026-05-05 17:49 | 37.94643 | 23.94698 | 305 ft | 17 kts | 127° |
| 2026-05-05 17:49 | 37.94567 | 23.94824 | 302 ft | 19 kts | 127° |
| 2026-05-05 17:50 | 37.94481 | 23.94965 | 302 ft | 22 kts | 126° |
| 2026-05-05 17:50 | 37.94355 | 23.95182 | 301 ft | 25 kts | 127° |
| 2026-05-05 17:50 | 37.94246 | 23.95362 | 301 ft | 27 kts | 128° |
| 2026-05-05 17:50 | 37.94160 | 23.95509 | 303 ft | 20 kts | 127° |
| 2026-05-05 17:51 | 37.94089 | 23.95546 | 299 ft | 17 kts | 206° |
| 2026-05-05 17:51 | 37.93987 | 23.95457 | 301 ft | 19 kts | 217° |
| 2026-05-05 17:51 | 37.93878 | 23.95352 | 301 ft | 18 kts | 217° |
| 2026-05-05 17:51 | 37.93780 | 23.95261 | 301 ft | 14 kts | 215° |
| 2026-05-05 17:52 | 37.93704 | 23.95171 | 300 ft | 14 kts | 259° |
| 2026-05-05 17:52 | 37.93705 | 23.95057 | 301 ft | 10 kts | 276° |
| 2026-05-05 17:52 | 37.93733 | 23.94998 | 303 ft | 4 kts | 308° |
| 2026-05-05 17:52 | 37.93751 | 23.94969 | 301 ft | 3 kts | 307° |
| 2026-05-05 17:53 | 37.93752 | 23.94967 | 301 ft | 0 kts | 307° |